createdAt,value
2019-02-06T00:03:00.581Z,67.90
2019-02-06T00:09:13.801Z,67.52
2019-02-06T00:15:19.771Z,67.02
2019-02-06T00:21:25.795Z,66.83
2019-02-06T00:27:32.119Z,66.73
2019-02-06T00:33:38.435Z,66.68
2019-02-06T00:39:44.138Z,66.54
2019-02-06T00:45:50.199Z,66.50
2019-02-06T00:51:55.960Z,66.29
2019-02-06T00:58:01.701Z,66.15
2019-02-06T01:04:07.674Z,66.13
2019-02-06T01:10:14.734Z,66.26
2019-02-06T01:16:20.537Z,66.36
2019-02-06T01:22:26.347Z,66.32
2019-02-06T01:28:32.391Z,66.36
2019-02-06T01:34:38.326Z,66.41
2019-02-06T01:40:44.436Z,66.36
2019-02-06T01:46:50.190Z,66.46
2019-02-06T01:52:56.189Z,66.41
2019-02-06T01:59:02.045Z,66.43
2019-02-06T02:05:08.215Z,66.33
2019-02-06T02:11:14.712Z,66.16
2019-02-06T02:17:20.539Z,66.18
2019-02-06T02:23:26.335Z,66.03
2019-02-06T02:29:32.563Z,65.96
2019-02-06T02:35:38.620Z,65.71
2019-02-06T02:41:44.884Z,65.58
2019-02-06T02:47:51.112Z,65.52
2019-02-06T02:53:57.495Z,65.44
2019-02-06T03:00:03.883Z,65.31
2019-02-06T03:06:10.008Z,65.21
2019-02-06T03:12:15.913Z,64.90
2019-02-06T03:18:21.654Z,64.87
2019-02-06T03:24:27.403Z,64.87
2019-02-06T03:30:33.429Z,64.76
2019-02-06T03:36:40.885Z,64.61
2019-02-06T03:42:47.072Z,64.43
2019-02-06T03:48:54.109Z,64.05
2019-02-06T03:54:59.903Z,63.81
2019-02-06T04:01:05.727Z,63.35
2019-02-06T04:07:11.948Z,63.15
2019-02-06T04:13:17.703Z,62.84
2019-02-06T04:19:23.491Z,62.48
2019-02-06T04:25:29.484Z,62.36
2019-02-06T04:31:35.448Z,62.22
2019-02-06T04:37:43.574Z,62.11
2019-02-06T04:43:49.345Z,61.91
2019-02-06T04:49:55.519Z,61.92
2019-02-06T04:56:01.342Z,61.80
2019-02-06T05:02:07.426Z,61.69
2019-02-06T05:08:13.310Z,61.37
2019-02-06T05:14:19.045Z,61.07
2019-02-06T05:20:50.018Z,60.94
2019-02-06T05:27:05.495Z,60.73
2019-02-06T05:33:11.966Z,60.51
2019-02-06T05:39:17.841Z,60.32
2019-02-06T05:45:23.623Z,60.05
2019-02-06T05:51:29.461Z,60.10
2019-02-06T05:57:35.292Z,60.08
2019-02-06T06:03:41.714Z,59.99
2019-02-06T06:09:48.029Z,59.91
2019-02-06T06:15:53.956Z,59.73
2019-02-06T06:22:00.023Z,59.54
2019-02-06T06:28:06.476Z,59.46
2019-02-06T06:34:12.619Z,61.85
2019-02-06T06:40:21.454Z,59.50
2019-02-06T06:46:27.353Z,58.94
2019-02-06T06:52:33.106Z,58.69
2019-02-06T06:58:38.874Z,58.65
2019-02-06T07:04:45.049Z,58.36
2019-02-06T07:10:51.093Z,58.30
2019-02-06T07:16:57.210Z,58.31
2019-02-06T07:23:03.277Z,58.21
2019-02-06T07:29:09.362Z,58.03
2019-02-06T07:35:15.253Z,58.01
2019-02-06T07:41:21.352Z,57.89
2019-02-06T07:47:27.346Z,57.79
2019-02-06T07:53:33.312Z,57.33
2019-02-06T07:59:39.193Z,57.00
2019-02-06T08:05:45.508Z,56.52
2019-02-06T08:11:51.938Z,56.00
2019-02-06T08:17:57.867Z,55.43
2019-02-06T08:24:03.707Z,54.82
2019-02-06T08:30:16.164Z,54.04
2019-02-06T08:36:22.071Z,53.58
2019-02-06T08:42:28.169Z,53.29
2019-02-06T08:48:34.419Z,52.94
2019-02-06T08:54:40.296Z,52.84
2019-02-06T09:00:46.589Z,52.36
2019-02-06T09:06:53.145Z,52.16
2019-02-06T09:12:59.243Z,52.11
2019-02-06T09:19:05.348Z,51.37
2019-02-06T09:25:13.204Z,51.10
2019-02-06T09:31:19.508Z,50.97
2019-02-06T09:37:25.520Z,50.73
2019-02-06T09:43:31.420Z,50.17
2019-02-06T09:49:37.186Z,49.40
2019-02-06T09:55:43.136Z,49.12
2019-02-06T10:01:49.050Z,49.12
2019-02-06T10:07:55.130Z,48.81
2019-02-06T10:14:01.165Z,48.38
2019-02-06T10:20:11.299Z,48.18
2019-02-06T10:26:17.303Z,47.89
2019-02-06T10:32:23.145Z,47.62
2019-02-06T10:38:29.638Z,47.54
2019-02-06T10:44:35.795Z,47.17
2019-02-06T10:50:48.547Z,47.19
2019-02-06T10:56:54.823Z,46.86
2019-02-06T11:03:00.689Z,46.49
2019-02-06T11:09:08.960Z,46.04
2019-02-06T11:15:15.403Z,46.48
2019-02-06T11:21:21.316Z,46.45
2019-02-06T11:27:27.136Z,46.31
2019-02-06T11:33:33.185Z,46.31
2019-02-06T11:39:39.220Z,46.06
2019-02-06T11:45:45.222Z,45.68
2019-02-06T11:51:50.984Z,45.85
2019-02-06T11:57:56.894Z,45.54
2019-02-06T12:04:03.498Z,45.81
2019-02-06T12:10:13.287Z,45.32
2019-02-06T12:16:19.221Z,45.08
2019-02-06T12:22:25.337Z,45.16
2019-02-06T12:28:31.051Z,44.91
2019-02-06T12:34:36.855Z,44.42
2019-02-06T12:40:43.016Z,44.66
2019-02-06T12:46:48.748Z,44.64
2019-02-06T12:52:57.277Z,44.88
2019-02-06T12:59:02.009Z,44.28
2019-02-06T13:05:08.459Z,44.01
2019-02-06T13:11:14.525Z,43.87
2019-02-06T13:17:20.347Z,43.62
2019-02-06T13:23:26.173Z,43.56
2019-02-06T13:29:32.329Z,43.03
2019-02-06T13:35:38.804Z,42.83
2019-02-06T13:41:45.251Z,43.00
2019-02-06T13:47:51.104Z,42.67
2019-02-06T13:53:56.962Z,42.58
2019-02-06T14:00:02.904Z,42.34
2019-02-06T14:06:11.260Z,42.55
2019-02-06T14:12:16.603Z,42.50
2019-02-06T14:18:22.334Z,42.64
2019-02-06T14:25:10.006Z,42.25
2019-02-06T14:32:05.579Z,41.70
2019-02-06T14:39:21.368Z,41.41
2019-02-06T14:46:32.221Z,41.97
2019-02-06T14:53:55.148Z,42.13
2019-02-06T15:01:13.738Z,41.87
2019-02-06T15:07:53.374Z,41.62
2019-02-06T15:14:47.951Z,41.95
2019-02-06T15:21:45.361Z,41.81
2019-02-06T15:28:59.374Z,41.87
2019-02-06T15:36:06.425Z,41.80
2019-02-06T15:43:27.404Z,42.03
2019-02-06T15:50:29.180Z,42.31
2019-02-06T15:57:20.215Z,42.33
2019-02-06T16:04:54.102Z,42.41
2019-02-06T16:11:42.351Z,42.43
2019-02-06T16:18:27.791Z,42.11
2019-02-06T16:25:08.399Z,42.39
2019-02-06T16:32:05.497Z,42.50
2019-02-06T16:38:58.343Z,42.36
2019-02-06T16:46:13.698Z,42.51
2019-02-06T16:52:45.165Z,42.68
2019-02-06T16:59:50.382Z,42.83
2019-02-06T17:06:49.150Z,43.15
2019-02-06T17:13:48.436Z,43.75
2019-02-06T17:21:06.385Z,44.56
2019-02-06T17:27:56.660Z,45.57
2019-02-06T17:34:49.476Z,46.64
2019-02-06T17:41:22.474Z,47.25
2019-02-06T17:48:03.473Z,47.82
2019-02-06T17:55:16.627Z,48.25
2019-02-06T18:01:49.535Z,48.51
2019-02-06T18:07:55.717Z,49.18
2019-02-06T18:14:01.980Z,49.95
2019-02-06T18:20:11.490Z,50.52
2019-02-06T18:26:17.370Z,50.60
2019-02-06T18:32:27.562Z,50.96
2019-02-06T18:38:33.401Z,51.25
2019-02-06T18:44:40.639Z,51.31
2019-02-06T18:50:46.625Z,51.00
2019-02-06T18:56:52.803Z,50.92
2019-02-06T19:02:58.855Z,51.05
2019-02-06T19:09:09.958Z,51.12
2019-02-06T19:15:17.769Z,51.20
2019-02-06T19:21:24.110Z,51.53
2019-02-06T19:27:30.005Z,51.76
2019-02-06T19:33:35.921Z,52.18
2019-02-06T19:39:43.645Z,52.43
2019-02-06T19:45:50.153Z,52.73
2019-02-06T19:51:56.150Z,52.88
2019-02-06T19:58:02.309Z,53.00
2019-02-06T20:04:08.610Z,53.22
2019-02-06T20:10:19.740Z,53.44
2019-02-06T20:16:25.963Z,53.59
2019-02-06T20:22:32.370Z,53.80
2019-02-06T20:28:38.375Z,54.50
2019-02-06T20:34:44.300Z,54.65
2019-02-06T20:40:50.147Z,54.92
2019-02-06T20:46:56.182Z,55.17
2019-02-06T20:53:02.199Z,55.34
2019-02-06T20:59:08.292Z,56.04
2019-02-06T21:05:14.885Z,56.27
2019-02-06T21:11:21.190Z,56.56
2019-02-06T21:17:27.294Z,57.26
2019-02-06T21:23:33.350Z,58.27
2019-02-06T21:29:39.552Z,59.49
2019-02-06T21:35:45.610Z,60.43
2019-02-06T21:41:51.402Z,61.05
2019-02-06T21:47:57.589Z,61.23
2019-02-06T21:54:03.487Z,61.66
2019-02-06T22:00:32.482Z,61.87
2019-02-06T22:06:38.531Z,62.22
2019-02-06T22:12:44.438Z,62.21
2019-02-06T22:18:52.077Z,62.61
2019-02-06T22:24:57.853Z,62.61
2019-02-06T22:31:03.589Z,62.54
2019-02-06T22:37:09.379Z,62.51
2019-02-06T22:43:15.357Z,62.72
2019-02-06T22:49:21.515Z,62.95
2019-02-06T22:55:27.701Z,63.07
2019-02-06T23:01:45.951Z,63.83
2019-02-06T23:07:51.625Z,64.08
2019-02-06T23:13:57.609Z,63.93
2019-02-06T23:20:03.498Z,64.17
2019-02-06T23:26:09.781Z,63.89
2019-02-06T23:32:15.629Z,63.66
2019-02-06T23:38:21.388Z,63.84
2019-02-06T23:44:29.203Z,63.89
2019-02-06T23:50:35.295Z,64.20
2019-02-06T23:56:41.263Z,64.35
